Aktualne dane pomiarowe

Uwaga, wersja testowa! Automatyczne pobieranie danych za pomocą narzędzi lub skryptów to umożliwiających jest zabronione.

Dane meteo z obszaru Polski uzyskane na podstawie depesz SYNOP pobieranych co godzinę z NWS. Najedź myszką na symbol przedstawiony w tabeli, aby uzyskać informacje co do jego znaczenia. Prosimy pamiętać, że to testowa wersja strony, która jeszcze nie jest ukończona. Stworzono również jest krótki FAQ dotyczący korzystania z tej podstrony Anomalie temperatury w chwili obecnej odniesione są do okresu referencyjnego 1951-2016. Okres ten będzie później zmieniony na 1981-2010. Kliknij ikonę aby pobrać plik CSV. Kliknij ikonę aby wygenerować mapę synoptyczną dla danego terminu.

Wybierz Datę:    

        

Elbląg-Milejewo (12160)

Dane terminowe dla wybranej stacji. Kliknij datę, aby otrzymać dane z tego terminu dla wszystkich stacji.

TemperaturaZachmurzenieWiatrCiśnienieOpadyPogoda
 Data t td wb tx tn tg rh  Nt Nl Cl Cm Ch ws wd g1 g2 wx mslp ppp ch 24h 12h t ww ww w1 w2  
2019-07-07 23:00:00 11.6 10.0 10.5--- 9020.0wxwxwx3wx--31006.6 984.5 0.6---------
2019-07-07 22:00:00 12.0 9.7 10.5--- 8620.0wxwxwx3wx--31006.5 984.4 0.9---------
2019-07-07 21:00:00 12.0 9.7 10.5--- 8620.0wxwxwx3wx-831006.4 984.3 1.1---------
2019-07-07 20:00:00 13.5 9.7 11.1--- 7820.0wxwxwx4wx--41005.8 983.9 0.9---------
2019-07-07 19:00:00 13.2 9.4 10.8--- 7820.0wxwxwx3wx8--1005.4 983.5 0.6---------
2019-07-07 18:00:00 13.3 9.7 11.0 15.5 12.0- 7920.0wxwxwx3wx-1431005.1 983.2 0.6- 0.912wx-w1--
2019-07-07 17:00:00 13.6 9.6 11.0--- 7720.0wxwxwx3wx---1004.9 983.0 0.6---------
2019-07-07 16:00:00 13.9 10.7 11.8--- 8120.0wxwxwx3wx---1004.8 982.9 1.1---------
2019-07-07 15:00:00 13.4 11.5 12.1--- 8815.0wxwxwx4wx-1441004.5 982.6 0.6---wx---
2019-07-07 14:00:00 13.5 10.7 11.6--- 836.0wxwxwx6wx121361004.3 982.4 1.0---wx---
2019-07-07 13:00:00 14.8 10.0 11.8--- 7320.0wxwxwx8wx14--1003.6 981.8 0.5---------
2019-07-07 12:00:00 13.7 10.3 11.5--- 8010.0wxwxwx4wx91441003.9 982.0 1.0--6wx---
2019-07-07 11:00:00 14.5 8.7 11.0--- 6820.0wxwxwx6wx11--1003.2 981.4 0.9---------
2019-07-07 10:00:00 14.5 8.9 11.1--- 6920.0wxwxwx6wx111461003.1 981.3 1.0---------
2019-07-07 09:00:00 14.3 9.3 11.2--- 7220.0wxwxwx7wx-1471002.8 981.0 0.8---------
2019-07-07 08:00:00 13.4 8.9 10.6--- 7420.0wxwxwx7wx121471002.4 980.5 0.2---------
2019-07-07 07:00:00 12.9 9.0 10.4--- 7720.0wxwxwx7wx121271002.2 980.3 -0.1---------
2019-07-07 06:00:00 12.0 8.7 9.9 14.4 11.1 11 8020.0wxwxwx6wx-1261002.2 980.2 -0.2 3.4 1.012wx-- 5.0
2019-07-07 05:00:00 11.3 8.5 9.5--- 8320.0wxwxwx7wx--71002.3 980.3 -0.2---wx---
2019-07-07 04:00:00 11.1 8.3 9.3--- 8320.0wxwxwxwx6wx--61002.4 980.4 -0.4---------
2019-07-07 03:00:00 11.3 9.2 9.9--- 8720.0wxwxwxwx5wx--51002.4 980.4 -0.4---------
2019-07-07 02:00:00 12.0 10.1 10.7--- 8820.0wxwxwx4wx--41002.5 980.5 -0.4---------
2019-07-07 01:00:00 12.8 11.2 11.7--- 9015.0wxwxwx4wx---1002.7 980.8 0.1---------
2019-07-07 00:00:00 14.0 12.4 12.9--- 9015.0wxwxwx6wx--61002.6 980.8 -0.2- 1.06wx-w1--
2019-07-06 23:00:00 14.0 12.7 13.1--- 9210.0wxwxwx4wx--41002.7 980.9 -0.7---------
2019-07-06 22:00:00 14.1 13.0 13.3--- 9310.0wxwxwx5wx--51002.5 980.7 -1.4---wx-w1--
2019-07-06 21:00:00 14.3 13.0 13.4--- 928.0wxwxwx5wx--51002.8 981.0 -1.5---wx---
2019-07-06 20:00:00 14.1 13.0 13.3--- 9310.0wxwxwx3wx--31003.4 981.6 -1.1---wx---
2019-07-06 19:00:00 14.0 13.2 13.4--- 9510.0wxwxwx3wx--31003.9 982.1 -1.2---------
2019-07-06 18:00:00 14.4 13.4 13.7 16.1 11.5- 9410.0wxwxwx3wx--31004.3 982.5 -1.3- 2.012wx---
2019-07-06 17:00:00 15.1 13.1 13.7--- 8820.0wxwxwx2wx--21004.5 982.7 -1.7---wx---
2019-07-06 16:00:00 15.6 13.4 14.1--- 8720.0wxwxwx3wx--31005.1 983.3 -1.3---wx---
2019-07-06 15:00:00 15.2 12.7 13.5--- 8520.0wxwxwx3wx--31005.6 983.8 -1.2---wx---
2019-07-06 14:00:00 14.6 12.6 13.2--- 8810.0wxwxwx4wx--41006.3 984.4 -1.1---wx-w1--
2019-07-06 13:00:00 15.3 12.4 13.3--- 8320.0wxwxwx4wx--41006.4 984.6 -0.9---------
2019-07-06 12:00:00 14.7 12.7 13.3--- 8820.0wxwxwx4wx--41006.9 985.0 -0.9- 0.96wx---
2019-07-06 11:00:00 14.0 11.9 12.6--- 8715.0wxwxwx3wx--31007.4 985.5 -0.8---wx-w1--
2019-07-06 10:00:00 15.1 11.5 12.7--- 7915.0wxwxwx3wx--31007.3 985.5 -1.0---wx---
2019-07-06 09:00:00 15.6 10.1 12.2--- 7020.0wxwxwx4wx--41007.7 985.9 -0.6---------
2019-07-06 08:00:00 14.2 11.4 12.3--- 8320.0wxwxwxwx5wx--51008.2 986.3 -0.1---------
2019-07-06 07:00:00 13.7 10.5 11.6--- 8120.0wxwxwxwxwx5wx--51008.5 986.5 0.1---------
2019-07-06 06:00:00 11.7 9.3 10.1 14.9 7.9 7 8520.0wxwxwxwxwx5wx--51008.6 986.5 -0.1 1.5 0.012----- 10.3
2019-07-06 05:00:00 10.8 7.3 8.6--- 7915.0wx-wxwx4wx--41008.6 986.4 -0.4---------
2019-07-06 04:00:00 8.7 6.5 7.3--- 8615.0wx-wxwx4wx--41008.8 986.4 -0.7---------
2019-07-06 03:00:00 7.9 6.0 6.6--- 8820.0wx-wx4wx--41009.0 986.6 -0.5---------
2019-07-06 02:00:00 8.2 6.0 6.8--- 8620.0wx-wx5wx--51009.2 986.8 -0.4---------
2019-07-06 01:00:00 9.0 6.4 7.3--- 8420.0wx-wx5wx--51009.5 987.1 -0.2---------
2019-07-06 00:00:00 9.4 6.3 7.4--- 8120.0wx-wx5wx--51009.4 987.1 -0.4- 0.06------
1.1 ms

 

Print Friendly, PDF & Email